Time;durP1;ratioP1;P1;durP2;ratioP2;P2;SDS_P1;SDS_P2;PMS_P1;PMS_P2;Temp;Humidity;BMP_temperature;BMP_pressure;BME280_temperature;BME280_humidity;BME280_pressure;Samples;Min_cycle;Max_cycle;Signal;HPM_P1;HPM_P2
2021/04/27 00:00:11;;;;;;;6.92;4.10;;;;;;;3.33;62.02;99268.88;1790221;80;21098;-42
2021/04/27 00:02:39;;;;;;;7.25;4.58;;;;;;;3.27;62.23;99270.13;1790155;80;21749;-42
2021/04/27 00:05:10;;;;;;;6.17;3.83;;;;;;;3.20;62.38;99267.11;1789970;80;21165;-43
2021/04/27 00:07:38;;;;;;;6.40;4.20;;;;;;;3.13;62.58;99272.70;1794527;78;21181;-43
2021/04/27 00:10:08;;;;;;;6.42;4.22;;;;;;;3.05;62.98;99273.70;1792643;80;21134;-43
2021/04/27 00:12:36;;;;;;;9.83;3.87;;;;;;;3.00;63.29;99279.20;1794245;80;21165;-43
2021/04/27 00:15:10;;;;;;;6.42;3.50;;;;;;;2.96;63.83;99276.91;1794311;80;21442;-42
2021/04/27 00:17:38;;;;;;;6.20;3.05;;;;;;;2.97;63.89;99274.47;1801059;78;21712;-42
2021/04/27 00:20:08;;;;;;;6.55;3.17;;;;;;;3.03;63.90;99271.90;1762898;81;21113;-42
2021/04/27 00:22:36;;;;;;;5.97;2.67;;;;;;;3.05;63.91;99270.23;1761448;81;21181;-42
2021/04/27 00:25:07;;;;;;;6.85;3.22;;;;;;;3.06;64.22;99275.28;1804759;78;21107;-42
2021/04/27 00:27:35;;;;;;;5.97;3.45;;;;;;;3.04;64.50;99276.16;1812904;77;21256;-42
2021/04/27 00:30:11;;;;;;;6.17;3.05;;;;;;;3.03;64.72;99280.48;1772567;81;21569;-42
2021/04/27 00:32:38;;;;;;;6.80;3.50;;;;;;;3.05;65.12;99287.09;1772345;81;21166;-42
2021/04/27 00:35:09;;;;;;;5.40;3.10;;;;;;;3.08;65.04;99283.02;1767477;81;21165;-42
2021/04/27 00:37:37;;;;;;;3.98;3.02;;;;;;;3.11;65.14;99282.92;1761599;80;21160;-42
2021/04/27 00:40:07;;;;;;;5.33;3.12;;;;;;;3.16;65.17;99278.77;1761113;81;21466;-42
2021/04/27 00:42:39;;;;;;;5.80;3.20;;;;;;;3.25;65.10;99275.00;1765978;80;21623;-42
2021/04/27 00:45:10;;;;;;;5.47;3.30;;;;;;;3.30;65.09;99283.44;1786475;80;21179;-42
2021/04/27 00:47:38;;;;;;;6.00;3.80;;;;;;;3.29;65.13;99275.19;1786363;80;21159;-42
2021/04/27 00:50:10;;;;;;;5.53;3.47;;;;;;;3.27;65.31;99273.36;1786449;80;21163;-42
2021/04/27 00:52:38;;;;;;;5.00;3.17;;;;;;;3.27;65.68;99278.72;1786376;80;21211;-42
2021/04/27 00:55:08;;;;;;;9.20;3.42;;;;;;;3.22;65.98;99282.33;1786516;80;21140;-42
2021/04/27 00:57:36;;;;;;;4.30;3.20;;;;;;;3.26;65.69;99281.15;1826968;78;21443;-42
2021/04/27 01:00:08;;;;;;;4.58;3.15;;;;;;;3.30;65.83;99278.08;1765849;80;21121;-42
2021/04/27 01:02:36;;;;;;;5.53;3.35;;;;;;;3.29;65.93;99276.52;1827108;78;21134;-42
2021/04/27 01:05:14;;;;;;;5.20;3.15;;;;;;;3.27;66.21;99276.83;1794406;80;21194;-42
2021/04/27 01:08:25;;;;;;;7.12;3.72;;;;;;;3.24;66.22;99287.39;1826983;78;21169;-42
2021/04/27 01:11:21;;;;;;;5.10;3.17;;;;;;;3.20;66.51;99286.41;1794448;80;21184;-42
2021/04/27 01:14:33;;;;;;;6.15;2.98;;;;;;;3.13;66.36;99282.08;1826903;78;21181;-42
2021/04/27 01:17:11;;;;;;;6.87;3.50;;;;;;;3.18;66.48;99291.30;1763085;80;21135;-42
2021/04/27 01:19:54;;;;;;;;;;;;;;;3.11;66.63;99293.64;1815057;79;21450;-42
2021/04/27 01:22:31;;;;;;;4.70;3.12;;;;;;;3.08;66.99;99287.58;1813369;79;20279;-42
2021/04/27 01:25:10;;;;;;;5.60;3.67;;;;;;;2.99;67.10;99292.91;1824740;78;28369;-42
2021/04/27 01:27:38;;;;;;;;;;;;;;;3.28;66.29;99285.66;1801215;79;21004;-42
2021/04/27 01:30:08;;;;;;;4.85;2.95;;;;;;;3.43;65.81;99285.21;1783641;80;21901;-41
2021/04/27 01:32:37;;;;;;;4.50;2.72;;;;;;;3.28;66.21;99289.12;1783517;80;21070;-42
2021/04/27 01:35:07;;;;;;;5.97;3.25;;;;;;;3.22;66.39;99289.03;1783992;80;21837;-42
2021/04/27 01:37:51;;;;;;;5.08;3.60;;;;;;;3.16;66.50;99291.61;1801166;79;20984;-42
2021/04/27 01:40:20;;;;;;;5.25;3.30;;;;;;;3.06;66.72;99287.88;1815690;78;21003;-42
2021/04/27 01:42:48;;;;;;;5.58;3.15;;;;;;;3.01;67.05;99294.17;1815883;79;22107;-42
2021/04/27 01:45:17;;;;;;;4.90;3.42;;;;;;;3.00;67.10;99293.16;1815645;78;20983;-42
2021/04/27 01:47:45;;;;;;;4.70;2.92;;;;;;;3.01;67.18;99299.53;1815685;79;21031;-42
2021/04/27 01:50:13;;;;;;;5.85;2.90;;;;;;;3.05;67.14;99290.31;1815678;78;21178;-41
2021/04/27 01:52:43;;;;;;;;;;;;;;;3.04;67.16;99294.11;1777002;79;21460;-41
2021/04/27 01:55:13;;;;;;;6.97;3.50;;;;;;;3.00;67.16;99301.95;1809673;79;21191;-41
2021/04/27 01:57:41;;;;;;;4.97;3.15;;;;;;;2.84;67.56;99292.79;1772215;81;21609;-41
2021/04/27 02:00:11;;;;;;;5.00;3.22;;;;;;;2.81;67.69;99300.08;1716352;81;21055;-41
2021/04/27 02:02:43;;;;;;;6.55;3.40;;;;;;;2.79;67.72;99298.28;1772300;81;21201;-41
2021/04/27 02:05:19;;;;;;;4.78;2.98;;;;;;;2.80;67.80;99291.84;1778147;77;21134;-42
2021/04/27 02:07:56;;;;;;;5.03;3.22;;;;;;;2.85;67.90;99293.03;1842212;76;22691;-42
2021/04/27 02:10:27;;;;;;;4.90;3.27;;;;;;;2.84;67.99;99298.14;1797909;79;20988;-42
2021/04/27 02:12:57;;;;;;;6.30;3.90;;;;;;;2.85;67.97;99293.03;1797812;79;21271;-41
2021/04/27 02:15:26;;;;;;;5.58;3.60;;;;;;;2.88;67.90;99295.62;1777601;79;21024;-42
2021/04/27 02:18:14;;;;;;;4.50;3.05;;;;;;;2.88;67.91;99293.74;1797985;79;21566;-42
2021/04/27 02:20:43;;;;;;;4.78;3.47;;;;;;;2.90;67.74;99292.89;1797868;79;21153;-41
2021/04/27 02:23:30;;;;;;;5.55;3.45;;;;;;;2.97;67.73;99298.57;1834559;78;23393;-42
2021/04/27 02:25:59;;;;;;;6.45;3.50;;;;;;;2.94;67.72;99292.52;1807542;79;21043;-41
2021/04/27 02:28:30;;;;;;;;;;;;;;;2.92;68.05;99289.34;1809871;79;21405;-42
2021/04/27 02:30:58;;;;;;;6.83;3.90;;;;;;;2.93;67.92;99290.92;1807811;79;20141;-42
2021/04/27 02:33:27;;;;;;;5.17;3.10;;;;;;;2.83;67.99;99291.20;1807670;79;20996;-42
2021/04/27 02:35:55;;;;;;;5.97;3.60;;;;;;;2.88;67.99;99291.06;1807306;79;21000;-42
2021/04/27 02:38:25;;;;;;;4.67;3.50;;;;;;;2.98;67.88;99294.80;1781843;79;20968;-42
2021/04/27 02:40:54;;;;;;;4.17;3.12;;;;;;;3.09;67.55;99290.50;1775743;80;21201;-41
2021/04/27 02:43:24;;;;;;;;;;;;;;;3.13;67.47;99300.83;1778407;80;21016;-42
2021/04/27 02:45:52;;;;;;;5.65;3.40;;;;;;;3.10;67.49;99293.42;1775938;80;20484;-42
2021/04/27 02:48:25;;;;;;;5.25;3.62;;;;;;;2.99;67.82;99297.73;1775789;80;21197;-42
2021/04/27 02:51:00;;;;;;;5.72;3.80;;;;;;;2.97;67.71;99297.23;1774711;80;21166;-42
2021/04/27 02:53:30;;;;;;;5.47;3.25;;;;;;;2.94;67.92;99299.75;1775372;79;21243;-41
2021/04/27 02:55:58;;;;;;;6.28;3.87;;;;;;;2.92;67.92;99298.71;1782869;79;21122;-42
2021/04/27 02:58:27;;;;;;;6.90;3.85;;;;;;;2.94;68.00;99300.55;1807690;79;21444;-41
2021/04/27 03:00:58;;;;;;;8.08;4.20;;;;;;;2.92;68.09;99301.39;1807514;79;21753;-41
2021/04/27 03:03:27;;;;;;;8.20;3.95;;;;;;;2.88;68.23;99300.98;1807763;79;21155;-42
2021/04/27 03:05:55;;;;;;;7.80;4.33;;;;;;;2.83;68.31;99300.58;1806815;79;21194;-41
2021/04/27 03:08:23;;;;;;;8.43;4.17;;;;;;;2.81;68.71;99305.44;1781002;80;21163;-41
2021/04/27 03:10:52;;;;;;;8.18;4.25;;;;;;;2.82;68.72;99308.36;1781020;80;21142;-41
2021/04/27 03:13:21;;;;;;;5.27;3.90;;;;;;;2.86;68.71;99306.64;1781243;80;21118;-41
2021/04/27 03:15:50;;;;;;;8.05;4.37;;;;;;;2.86;68.77;99309.31;1780543;78;21419;-41
2021/04/27 03:18:18;;;;;;;6.30;3.80;;;;;;;2.82;68.80;99312.38;1775869;80;21244;-41
2021/04/27 03:20:46;;;;;;;5.95;3.77;;;;;;;2.80;68.89;99309.23;1775763;80;21114;-41
2021/04/27 03:23:29;;;;;;;5.70;3.80;;;;;;;2.82;68.89;99305.69;1830964;78;22713;-42
2021/04/27 03:25:58;;;;;;;6.55;4.15;;;;;;;2.75;68.97;99302.68;1803540;79;21100;-42
2021/04/27 03:28:37;;;;;;;7.58;3.98;;;;;;;2.74;69.13;99311.01;1757539;80;21406;-41
2021/04/27 03:31:06;;;;;;;8.17;4.20;;;;;;;2.79;69.08;99307.66;1776066;80;20999;-42
2021/04/27 03:33:34;;;;;;;7.60;4.53;;;;;;;2.82;69.09;99308.91;1775909;80;21553;-42
2021/04/27 03:36:03;;;;;;;7.30;4.47;;;;;;;2.85;69.06;99311.77;1775769;80;21024;-41
2021/04/27 03:38:31;;;;;;;9.18;4.90;;;;;;;2.91;69.00;99310.52;1766268;80;21185;-41
2021/04/27 03:41:00;;;;;;;7.30;4.97;;;;;;;2.95;68.91;99314.73;1776044;80;22266;-41
2021/04/27 03:43:29;;;;;;;;;;;;;;;2.95;68.98;99320.08;1788552;79;21051;-41
2021/04/27 03:45:57;;;;;;;6.70;4.40;;;;;;;3.04;68.86;99319.01;1807722;79;20153;-41
2021/04/27 03:48:26;;;;;;;8.05;5.28;;;;;;;3.11;68.76;99324.44;1807620;79;21138;-42
2021/04/27 03:50:58;;;;;;;7.00;4.78;;;;;;;3.22;68.47;99323.06;1807793;79;21154;-42
2021/04/27 03:53:38;;;;;;;8.25;5.17;;;;;;;3.32;68.38;99314.73;1807842;78;22583;-42
2021/04/27 03:56:08;;;;;;;7.58;5.12;;;;;;;3.36;67.95;99312.45;1793664;79;23153;-42
2021/04/27 03:58:36;;;;;;;9.45;5.25;;;;;;;3.42;67.95;99319.80;1748821;82;21383;-42
2021/04/27 04:01:07;;;;;;;6.83;4.80;;;;;;;3.48;67.61;99317.22;1779102;80;21000;-42
2021/04/27 04:03:40;;;;;;;8.15;5.12;;;;;;;3.51;67.54;99315.24;1748828;82;21010;-42
2021/04/27 04:06:09;;;;;;;6.03;4.62;;;;;;;3.55;67.33;99316.19;1779731;79;21068;-42
2021/04/27 04:08:41;;;;;;;7.55;4.78;;;;;;;3.59;66.96;99313.66;1732735;80;21051;-42
2021/04/27 04:11:10;;;;;;;8.65;4.95;;;;;;;3.61;66.90;99316.28;1779620;80;21254;-42
2021/04/27 04:13:38;;;;;;;8.00;4.80;;;;;;;3.63;66.97;99320.76;1779597;80;21004;-42
2021/04/27 04:16:07;;;;;;;8.03;4.35;;;;;;;3.64;67.19;99322.34;1779794;80;21530;-42
2021/04/27 04:18:35;;;;;;;7.58;4.67;;;;;;;3.65;66.89;99321.80;1734680;82;21175;-41
2021/04/27 04:21:04;;;;;;;6.42;4.50;;;;;;;3.62;66.71;99326.45;1740305;82;21178;-41
2021/04/27 04:23:48;;;;;;;7.62;4.85;;;;;;;3.61;67.02;99322.98;1735400;82;21220;-42
2021/04/27 04:26:18;;;;;;;7.08;4.47;;;;;;;3.61;67.18;99320.30;1740316;82;21234;-42
2021/04/27 04:28:48;;;;;;;6.05;4.42;;;;;;;3.63;67.07;99323.44;1722199;83;21153;-42
2021/04/27 04:31:17;;;;;;;5.05;3.15;;;;;;;3.71;66.96;99321.34;1719109;83;21212;-42
2021/04/27 04:34:04;;;;;;;7.92;4.87;;;;;;;3.72;66.82;99317.55;1765621;81;21167;-43
2021/04/27 04:36:50;;;;;;;9.20;5.08;;;;;;;3.67;66.71;99317.71;1761557;81;21399;-42
2021/04/27 04:39:37;;;;;;;7.30;4.60;;;;;;;3.64;66.62;99318.87;1750802;81;21177;-42
2021/04/27 04:42:24;;;;;;;8.98;5.53;;;;;;;3.67;66.77;99328.44;1750924;81;21193;-42
2021/04/27 04:45:13;;;;;;;6.67;4.05;;;;;;;3.73;66.17;99324.47;1750925;81;21127;-42
2021/04/27 04:47:59;;;;;;;7.70;4.53;;;;;;;3.74;66.16;99322.03;1750909;81;21158;-42
2021/04/27 04:50:39;;;;;;;6.65;4.35;;;;;;;3.78;65.96;99322.98;1746194;81;21304;-42
2021/04/27 04:53:21;;;;;;;6.33;4.03;;;;;;;3.86;65.56;99328.92;1712542;82;21202;-42
2021/04/27 04:55:51;;;;;;;6.97;4.40;;;;;;;3.85;65.19;99325.98;1715716;82;21068;-42
2021/04/27 04:58:24;;;;;;;8.30;4.28;;;;;;;3.84;65.30;99329.77;1807392;79;21103;-42
2021/04/27 05:00:54;;;;;;;6.92;4.45;;;;;;;3.89;65.60;99326.94;1808038;79;21169;-42
2021/04/27 05:03:40;;;;;;;7.03;4.47;;;;;;;4.01;65.09;99330.88;1808406;79;21265;-42
2021/04/27 05:06:29;;;;;;;7.67;4.47;;;;;;;4.02;64.96;99327.86;1811484;79;21151;-42
2021/04/27 05:09:15;;;;;;;5.65;3.77;;;;;;;4.01;64.97;99329.55;1813238;78;21055;-42
2021/04/27 05:12:08;;;;;;;6.22;4.10;;;;;;;4.07;65.12;99336.30;1855234;76;22740;-42
2021/04/27 05:14:45;;;;;;;6.63;4.50;;;;;;;4.06;65.11;99341.45;1825825;78;21022;-42
2021/04/27 05:17:15;;;;;;;8.45;4.83;;;;;;;4.09;64.81;99339.47;1847988;77;22271;-42
2021/04/27 05:19:43;;;;;;;7.35;4.45;;;;;;;4.11;65.00;99342.09;1821510;78;21185;-42
2021/04/27 05:22:11;;;;;;;7.95;5.10;;;;;;;4.19;65.25;99333.78;1787587;80;21715;-41
2021/04/27 05:24:39;;;;;;;6.37;4.47;;;;;;;3.96;65.04;99289.47;1801515;79;21604;-42
2021/04/27 05:27:12;;;;;;;7.33;4.17;;;;;;;4.32;65.28;99334.15;1801562;79;21002;-41
2021/04/27 05:29:40;;;;;;;6.87;4.10;;;;;;;4.37;64.82;99336.67;1789171;80;22440;-42
2021/04/27 05:32:08;;;;;;;7.53;4.35;;;;;;;4.44;64.28;99336.98;1821369;78;21016;-42
2021/04/27 05:34:36;;;;;;;7.05;4.25;;;;;;;4.51;64.16;99343.19;1789096;80;21565;-42
2021/04/27 05:37:04;;;;;;;6.10;4.42;;;;;;;4.53;63.95;99340.44;1813810;78;21142;-42
2021/04/27 05:39:32;;;;;;;6.60;4.25;;;;;;;4.58;63.51;99336.79;1756181;81;21161;-42
2021/04/27 05:42:00;;;;;;;6.37;4.30;;;;;;;4.62;63.00;99339.86;1780615;80;22255;-42
2021/04/27 05:44:30;;;;;;;12.10;4.67;;;;;;;4.64;62.17;99344.36;1780549;80;21217;-42
2021/04/27 05:46:58;;;;;;;5.35;3.98;;;;;;;4.67;62.13;99338.89;1780429;80;21188;-41
2021/04/27 05:49:27;;;;;;;8.85;4.42;;;;;;;4.74;62.20;99335.17;1780506;80;21612;-44
2021/04/27 05:51:54;;;;;;;7.08;4.25;;;;;;;4.56;62.35;99281.27;1780444;80;21201;-44
2021/04/27 05:54:22;;;;;;;8.30;4.25;;;;;;;5.02;61.44;99334.19;1780022;80;21250;-44
2021/04/27 05:56:50;;;;;;;5.15;3.67;;;;;;;5.09;61.11;99330.42;1734034;82;21170;-44
2021/04/27 05:59:18;;;;;;;7.50;4.05;;;;;;;5.16;60.57;99335.55;1756412;81;21178;-44
2021/04/27 06:01:48;;;;;;;8.30;4.17;;;;;;;5.28;60.61;99333.48;1764501;81;21138;-44
2021/04/27 06:04:17;;;;;;;7.78;4.05;;;;;;;5.40;60.63;99330.11;1764820;81;21106;-44
2021/04/27 06:06:45;;;;;;;6.15;3.83;;;;;;;5.52;59.02;99333.66;1780037;79;21246;-44
2021/04/27 06:09:16;;;;;;;4.85;3.67;;;;;;;5.61;59.16;99334.97;1789003;80;21102;-41
2021/04/27 06:11:46;;;;;;;5.12;3.90;;;;;;;5.70;59.09;99333.01;1821178;78;21556;-41
2021/04/27 06:14:14;;;;;;;7.22;3.85;;;;;;;5.81;58.82;99336.86;1801473;79;21161;-41
2021/04/27 06:16:43;;;;;;;4.42;3.35;;;;;;;5.88;57.02;99334.48;1790263;79;21130;-41
2021/04/27 06:19:11;;;;;;;5.22;3.30;;;;;;;5.87;56.09;99336.14;1770082;80;21210;-41
2021/04/27 06:21:41;;;;;;;6.03;3.87;;;;;;;5.89;56.64;99333.92;1759798;81;21178;-41
2021/04/27 06:24:09;;;;;;;;;;;;;;;5.98;56.87;99336.77;1767385;80;21032;-41
2021/04/27 06:26:37;;;;;;;5.70;3.80;;;;;;;6.07;56.27;99328.62;1770638;79;20567;-41
2021/04/27 06:29:05;;;;;;;3.58;3.00;;;;;;;6.04;56.18;99332.77;1815662;79;21122;-41
2021/04/27 06:31:33;;;;;;;4.25;2.90;;;;;;;6.13;55.50;99340.77;1815590;79;21364;-41
2021/04/27 06:34:02;;;;;;;4.67;3.40;;;;;;;6.17;55.19;99333.59;1815661;79;21189;-41
2021/04/27 06:36:33;;;;;;;7.22;3.40;;;;;;;6.22;54.39;99337.44;1815251;79;21656;-41
2021/04/27 06:39:02;;;;;;;4.08;3.10;;;;;;;6.20;54.25;99326.20;1776755;80;21190;-41
2021/04/27 06:41:32;;;;;;;4.00;3.10;;;;;;;6.21;53.79;99338.55;1777087;80;21135;-41
2021/04/27 06:44:01;;;;;;;4.00;2.67;;;;;;;6.22;53.09;99329.36;1777164;80;21368;-41
2021/04/27 06:46:30;;;;;;;4.05;2.30;;;;;;;6.28;53.60;99332.08;1777393;80;21166;-41
2021/04/27 06:49:00;;;;;;;3.40;2.60;;;;;;;6.34;52.91;99323.24;1777327;80;21170;-41
2021/04/27 06:51:28;;;;;;;4.28;2.60;;;;;;;6.34;52.82;99321.31;1777065;80;21063;-41
2021/04/27 06:53:56;;;;;;;3.55;2.62;;;;;;;6.39;53.58;99333.80;1777121;80;21100;-41
2021/04/27 06:56:26;;;;;;;1.90;1.75;;;;;;;6.45;52.41;99332.45;1781783;80;21213;-41
2021/04/27 06:58:54;;;;;;;3.40;2.60;;;;;;;6.57;52.75;99323.63;1815637;79;21134;-41
2021/04/27 07:01:23;;;;;;;3.00;1.90;;;;;;;6.69;52.05;99323.08;1787006;80;21582;-41
2021/04/27 07:03:52;;;;;;;4.92;2.70;;;;;;;6.81;51.24;99326.38;1777527;80;21229;-41
2021/04/27 07:06:20;;;;;;;4.40;2.70;;;;;;;6.90;51.09;99330.54;1800841;79;21149;-41
2021/04/27 07:08:48;;;;;;;3.40;2.52;;;;;;;6.99;50.21;99327.17;1788524;80;21202;-41
2021/04/27 07:11:17;;;;;;;3.17;2.00;;;;;;;7.03;49.26;99328.63;1820814;78;21186;-41
2021/04/27 07:13:45;;;;;;;2.65;2.10;;;;;;;7.10;49.26;99326.17;1788414;80;21154;-41
2021/04/27 07:16:16;;;;;;;2.92;2.17;;;;;;;7.19;48.96;99327.41;1817623;78;21002;-41
2021/04/27 07:18:43;;;;;;;3.10;2.35;;;;;;;7.34;48.89;99330.21;1795299;79;21154;-41
2021/04/27 07:21:13;;;;;;;3.45;2.47;;;;;;;7.59;48.96;99326.14;1810159;79;21277;-41
2021/04/27 07:23:41;;;;;;;3.40;2.22;;;;;;;7.82;48.87;99328.55;1810251;79;21230;-41
2021/04/27 07:26:10;;;;;;;2.98;2.40;;;;;;;8.06;47.24;99327.69;1804990;79;21021;-41
2021/04/27 07:28:38;;;;;;;4.28;2.33;;;;;;;8.15;46.39;99326.41;1820264;78;21130;-41
2021/04/27 07:31:06;;;;;;;2.90;2.52;;;;;;;8.21;46.56;99329.66;1820888;78;21150;-41
2021/04/27 07:33:35;;;;;;;4.00;2.37;;;;;;;8.29;44.75;99331.42;1820609;78;21179;-41
2021/04/27 07:36:06;;;;;;;3.83;2.30;;;;;;;8.28;44.54;99325.22;1820818;78;21580;-41
2021/04/27 07:38:35;;;;;;;2.83;1.90;;;;;;;8.32;45.23;99325.94;1820713;78;21703;-41
2021/04/27 07:41:04;;;;;;;2.83;1.95;;;;;;;8.48;45.67;99324.03;1820837;78;21054;-41
2021/04/27 07:43:33;;;;;;;2.67;2.15;;;;;;;8.65;42.44;99325.08;1820921;78;22121;-41
2021/04/27 07:46:01;;;;;;;4.55;2.40;;;;;;;8.71;43.42;99321.75;1820786;78;21272;-41
2021/04/27 07:48:29;;;;;;;3.00;2.08;;;;;;;8.79;43.44;99315.98;1820606;78;21178;-41
2021/04/27 07:50:58;;;;;;;2.50;2.20;;;;;;;8.91;44.20;99317.23;1818130;78;21063;-41
2021/04/27 07:53:26;;;;;;;2.50;2.20;;;;;;;9.14;44.41;99314.15;1809215;78;21123;-41
2021/04/27 07:55:54;;;;;;;2.58;2.37;;;;;;;9.38;43.01;99304.25;1813653;78;21170;-41
2021/04/27 07:58:21;;;;;;;6.53;1.98;;;;;;;9.51;42.28;99309.19;1820756;78;21189;-41
2021/04/27 08:00:50;;;;;;;2.42;2.02;;;;;;;9.71;43.75;99311.92;1820670;78;21174;-41
2021/04/27 08:03:18;;;;;;;2.40;1.87;;;;;;;9.98;42.94;99309.58;1784794;80;21024;-41
2021/04/27 08:05:48;;;;;;;2.95;2.27;;;;;;;10.19;42.30;99303.84;1752014;81;21124;-42
2021/04/27 08:08:17;;;;;;;2.25;1.70;;;;;;;10.36;40.27;99308.83;1761131;81;21190;-42
2021/04/27 08:10:45;;;;;;;2.62;1.87;;;;;;;10.53;39.99;99312.99;1749430;81;21375;-42
2021/04/27 08:13:14;;;;;;;1.80;1.42;;;;;;;10.72;39.42;99304.24;1764742;81;21184;-42
2021/04/27 08:15:42;;;;;;;2.35;1.50;;;;;;;10.90;38.95;99304.53;1764988;81;21042;-42
2021/04/27 08:18:10;;;;;;;2.25;1.47;;;;;;;11.00;36.72;99307.20;1708714;82;21205;-42
2021/04/27 08:20:38;;;;;;;1.70;1.37;;;;;;;10.79;35.65;99304.95;1738393;82;21144;-43
2021/04/27 08:23:07;;;;;;;1.52;1.42;;;;;;;10.57;36.76;99305.14;1729969;82;21387;-42
2021/04/27 08:25:37;;;;;;;2.65;1.60;;;;;;;10.58;37.98;99304.56;1726059;82;21217;-42
2021/04/27 08:31:06;;;;;;;3.52;1.90;;;;;;;10.84;37.11;99297.87;1835601;78;22456;-42
2021/04/27 08:33:36;;;;;;;2.08;1.70;;;;;;;10.78;37.90;99297.95;1807732;79;21151;-42
2021/04/27 08:36:07;;;;;;;2.65;1.87;;;;;;;10.88;37.17;99298.14;1807232;79;21019;-42
2021/04/27 08:38:35;;;;;;;2.33;1.80;;;;;;;11.02;37.84;99300.29;1780152;79;21023;-42
2021/04/27 08:41:04;;;;;;;2.70;1.98;;;;;;;11.22;37.53;99292.84;1768325;79;21133;-42
2021/04/27 08:43:33;;;;;;;1.72;1.57;;;;;;;11.32;37.06;99293.58;1757146;81;20949;-41
2021/04/27 08:46:03;;;;;;;1.72;1.50;;;;;;;11.37;36.84;99291.13;1739447;82;21059;-42
2021/04/27 08:48:31;;;;;;;2.52;1.75;;;;;;;11.44;35.32;99293.92;1685113;83;21296;-42
2021/04/27 08:50:59;;;;;;;2.40;1.60;;;;;;;11.41;34.32;99290.59;1739046;82;21340;-42
2021/04/27 08:53:28;;;;;;;2.62;1.90;;;;;;;11.35;34.04;99281.98;1713248;83;21016;-42
2021/04/27 08:55:58;;;;;;;2.00;1.72;;;;;;;11.25;34.85;99292.11;1721143;80;21668;-41
2021/04/27 08:58:26;;;;;;;1.90;1.47;;;;;;;11.07;34.73;99291.84;1714323;83;21145;-42
2021/04/27 09:00:55;;;;;;;2.85;1.72;;;;;;;10.99;35.33;99294.81;1725231;83;21200;-42
2021/04/27 09:03:23;;;;;;;1.60;1.40;;;;;;;11.07;35.55;99288.34;1725119;83;21193;-42
2021/04/27 09:05:51;;;;;;;2.22;1.52;;;;;;;11.16;35.57;99291.58;1725311;82;21070;-42
2021/04/27 09:08:36;;;;;;;2.35;1.72;;;;;;;11.18;34.24;99291.41;1767556;81;21169;-42
2021/04/27 09:11:32;;;;;;;1.50;1.40;;;;;;;10.81;35.45;99235.62;1742895;82;21202;-42
2021/04/27 09:14:19;;;;;;;2.30;1.50;;;;;;;11.14;36.08;99287.08;1742943;82;21202;-42
2021/04/27 09:16:56;;;;;;;2.33;1.70;;;;;;;11.26;35.45;99286.89;1748743;80;21166;-42
2021/04/27 09:19:39;;;;;;;2.10;1.50;;;;;;;11.29;35.52;99288.86;1717907;83;21171;-42
2021/04/27 09:22:18;;;;;;;5.83;1.80;;;;;;;11.26;35.22;99288.25;1717936;83;21167;-42
2021/04/27 09:24:56;;;;;;;2.60;1.60;;;;;;;11.25;34.92;99283.97;1718032;82;21131;-42
2021/04/27 09:27:32;;;;;;;2.85;1.72;;;;;;;11.27;36.13;99285.18;1726931;81;23528;-42
2021/04/27 09:30:26;;;;;;;2.02;1.60;;;;;;;11.30;35.98;99287.72;1742118;81;21760;-42
2021/04/27 09:35:45;;;;;;;2.00;1.60;;;;;;;11.25;35.73;99279.89;1872124;76;28574;-42
2021/04/27 09:38:31;;;;;;;3.08;1.67;;;;;;;11.61;34.58;99287.97;1834730;77;21018;-41
2021/04/27 09:41:05;;;;;;;2.85;1.70;;;;;;;11.74;34.54;99286.05;1825608;78;21189;-42
2021/04/27 09:43:42;;;;;;;1.80;1.60;;;;;;;11.60;33.68;99289.12;1825480;78;21034;-42
2021/04/27 09:46:14;;;;;;;5.67;1.67;;;;;;;11.56;34.36;99297.22;1825589;78;20951;-42
2021/04/27 09:48:51;;;;;;;2.05;1.62;;;;;;;11.51;34.04;99294.83;1825471;78;21591;-42
2021/04/27 09:51:26;;;;;;;2.37;1.35;;;;;;;11.49;34.49;99293.61;1822689;78;21016;-42
2021/04/27 09:54:02;;;;;;;2.47;1.85;;;;;;;11.41;34.76;99294.09;1824140;78;22115;-42
2021/04/27 09:56:44;;;;;;;1.95;1.50;;;;;;;11.32;34.08;99288.94;1825290;77;21042;-42
2021/04/27 09:59:23;;;;;;;2.45;1.60;;;;;;;11.16;34.02;99291.58;1789108;80;21039;-42
2021/04/27 10:01:54;;;;;;;2.37;2.02;;;;;;;10.90;34.64;99297.75;1805482;79;21170;-42
2021/04/27 10:04:26;;;;;;;2.25;1.90;;;;;;;10.72;34.62;99286.62;1789178;80;21201;-42
2021/04/27 10:06:58;;;;;;;1.60;1.30;;;;;;;10.58;35.38;99278.25;1804854;78;21155;-42
2021/04/27 10:09:26;;;;;;;1.57;1.40;;;;;;;10.58;35.43;99283.67;1805313;79;21182;-42
2021/04/27 10:11:54;;;;;;;1.90;1.40;;;;;;;10.67;34.99;99286.13;1805404;79;21004;-42
2021/04/27 10:14:23;;;;;;;1.40;1.20;;;;;;;10.74;35.72;99287.05;1805404;79;21166;-42
2021/04/27 10:16:51;;;;;;;2.55;1.45;;;;;;;10.88;35.04;99283.79;1805412;79;21165;-42
2021/04/27 10:19:19;;;;;;;1.45;1.22;;;;;;;11.08;35.21;99288.56;1805451;79;21358;-42
2021/04/27 10:21:49;;;;;;;2.12;1.47;;;;;;;11.31;36.04;99278.44;1805474;79;21143;-42
2021/04/27 10:24:23;;;;;;;3.33;1.82;;;;;;;11.60;35.29;99284.47;1805602;79;21159;-42
2021/04/27 10:26:50;;;;;;;2.45;1.70;;;;;;;11.59;34.97;99249.53;1805387;79;21147;-42
2021/04/27 10:29:23;;;;;;;2.95;1.52;;;;;;;11.88;33.57;99292.23;1805531;79;21146;-42
2021/04/27 10:32:19;;;;;;;2.42;1.60;;;;;;;11.67;33.07;99295.41;1794837;79;21262;-42
2021/04/27 10:35:02;;;;;;;2.17;1.57;;;;;;;11.43;34.68;99291.78;1792545;79;21031;-43
2021/04/27 10:38:01;;;;;;;2.25;1.52;;;;;;;11.24;35.01;99292.67;1769571;80;21138;-43
2021/04/27 10:40:57;;;;;;;2.58;1.50;;;;;;;11.15;34.74;99294.08;1763741;81;21150;-43
2021/04/27 10:43:31;;;;;;;4.62;1.95;;;;;;;11.01;34.91;99288.44;1763538;81;21215;-43
2021/04/27 10:46:10;;;;;;;3.33;1.87;;;;;;;10.95;36.19;99293.95;1763242;81;21361;-43
2021/04/27 10:48:43;;;;;;;4.60;1.67;;;;;;;11.04;35.34;99290.41;1763055;80;20999;-43
2021/04/27 10:51:27;;;;;;;2.25;1.57;;;;;;;11.09;35.25;99284.67;1763093;81;21553;-43
2021/04/27 10:54:20;;;;;;;1.65;1.35;;;;;;;11.15;34.25;99288.08;1763067;81;21149;-43
2021/04/27 10:57:10;;;;;;;2.22;1.40;;;;;;;11.28;34.41;99284.58;1791500;78;21048;-43
2021/04/27 10:59:59;;;;;;;1.90;1.55;;;;;;;11.45;34.05;99284.06;1746167;81;21367;-43
2021/04/27 11:02:30;;;;;;;4.00;1.50;;;;;;;11.41;33.65;99277.02;1785749;80;21070;-43
2021/04/27 11:05:16;;;;;;;4.83;1.70;;;;;;;11.18;33.44;99278.45;1785860;80;21055;-43
2021/04/27 11:07:46;;;;;;;1.90;1.60;;;;;;;11.07;33.84;99277.50;1762807;81;21023;-43
2021/04/27 11:10:20;;;;;;;2.72;1.60;;;;;;;11.08;34.28;99268.22;1746914;80;21166;-43
2021/04/27 11:12:59;;;;;;;2.83;1.60;;;;;;;11.08;34.05;99266.28;1760015;81;21362;-43
2021/04/27 11:15:30;;;;;;;1.95;1.45;;;;;;;11.18;34.32;99258.09;1785640;80;21180;-43
2021/04/27 11:18:17;;;;;;;2.02;1.50;;;;;;;11.22;32.80;99255.64;1762136;81;21168;-43
2021/04/27 11:20:51;;;;;;;1.80;1.50;;;;;;;11.13;33.05;99255.13;1785711;80;21142;-43
2021/04/27 11:23:46;;;;;;;1.50;1.30;;;;;;;11.02;33.00;99250.67;1785726;80;21138;-43
2021/04/27 11:26:37;;;;;;;1.82;1.55;;;;;;;11.08;32.79;99254.65;1834800;78;22744;-42
2021/04/27 11:29:13;;;;;;;3.20;1.40;;;;;;;11.07;32.40;99253.08;1775882;80;21024;-42
2021/04/27 11:32:10;;;;;;;1.80;1.30;;;;;;;11.11;33.25;99252.55;1775927;80;21388;-42
2021/04/27 11:35:03;;;;;;;2.45;1.52;;;;;;;11.04;32.49;99253.22;1745936;80;21039;-43
2021/04/27 11:37:50;;;;;;;2.20;1.40;;;;;;;10.93;32.61;99252.86;1775941;79;21008;-42
2021/04/27 11:40:29;;;;;;;2.92;1.70;;;;;;;10.90;32.46;99253.00;1775930;80;21568;-42
2021/04/27 11:43:12;;;;;;;2.60;1.47;;;;;;;10.84;32.87;99256.59;1776164;80;21012;-42
2021/04/27 11:45:46;;;;;;;1.80;1.30;;;;;;;10.59;34.89;99245.93;1775817;80;21189;-42
2021/04/27 11:48:18;;;;;;;2.30;1.47;;;;;;;10.26;35.38;99255.22;1776229;79;20995;-42
2021/04/27 11:50:46;;;;;;;4.08;1.70;;;;;;;10.06;36.04;99255.00;1778719;80;21185;-42
2021/04/27 11:53:16;;;;;;;2.10;1.40;;;;;;;9.89;36.76;99257.00;1778614;80;21023;-42
2021/04/27 11:55:53;;;;;;;3.92;1.27;;;;;;;9.80;36.99;99261.84;1789027;77;21180;-42
2021/04/27 11:58:25;;;;;;;2.37;1.30;;;;;;;9.81;37.76;99263.98;1800697;79;21254;-42
2021/04/27 12:00:57;;;;;;;2.83;1.50;;;;;;;10.09;37.60;99261.05;1807647;79;21135;-42
2021/04/27 12:03:45;;;;;;;2.15;1.57;;;;;;;10.42;36.77;99258.02;1807751;79;21036;-42
2021/04/27 12:06:16;;;;;;;1.40;1.30;;;;;;;10.78;35.55;99258.62;1807675;79;21118;-42
2021/04/27 12:08:49;;;;;;;3.30;1.47;;;;;;;11.02;35.12;99250.67;1807699;79;21134;-42
2021/04/27 12:11:29;;;;;;;2.45;1.40;;;;;;;11.15;34.23;99254.17;1807663;79;21174;-42
2021/04/27 12:14:09;;;;;;;4.75;1.45;;;;;;;11.14;33.88;99256.66;1807837;79;21047;-42